Time;durP1;ratioP1;P1;durP2;ratioP2;P2;SDS_P1;SDS_P2;PMS_P1;PMS_P2;Temp;Humidity;BMP_temperature;BMP_pressure;BME280_temperature;BME280_humidity;BME280_pressure;Samples;Min_cycle;Max_cycle;Signal;HPM_P1;HPM_P2
2024/04/04 00:01:09;;;;;;;8.50;7.70;;;10.80;99.90;;;;;;5027948;28;21118;-65
2024/04/04 00:03:36;;;;;;;8.00;7.30;;;10.80;99.90;;;;;;5020868;28;20487;-64
2024/04/04 00:06:02;;;;;;;8.53;7.80;;;10.80;99.90;;;;;;5021650;28;20843;-65
2024/04/04 00:08:29;;;;;;;7.73;7.13;;;10.80;99.90;;;;;;5015424;28;20475;-65
2024/04/04 00:10:58;;;;;;;9.20;7.37;;;10.80;99.90;;;;;;5019582;28;20682;-65
2024/04/04 00:13:25;;;;;;;8.00;7.20;;;10.80;99.90;;;;;;5019164;28;20927;-65
2024/04/04 00:15:53;;;;;;;7.83;7.13;;;10.80;99.90;;;;;;5023730;28;20471;-65
2024/04/04 00:18:20;;;;;;;8.33;7.53;;;10.80;99.90;;;;;;5013127;28;20674;-64
2024/04/04 00:20:48;;;;;;;10.10;8.07;;;10.80;99.90;;;;;;5020373;28;20514;-64
2024/04/04 00:23:15;;;;;;;8.10;7.37;;;10.70;99.90;;;;;;5035615;28;20879;-65
2024/04/04 00:25:42;;;;;;;8.83;7.93;;;10.80;99.90;;;;;;5022811;28;20498;-64
2024/04/04 00:28:09;;;;;;;8.20;7.43;;;10.70;99.90;;;;;;5024223;28;20468;-65
2024/04/04 00:30:35;;;;;;;8.23;7.50;;;10.70;99.90;;;;;;5017811;28;20483;-64
2024/04/04 00:33:04;;;;;;;8.83;7.93;;;10.70;99.90;;;;;;5019368;28;20522;-64
2024/04/04 00:35:30;;;;;;;8.80;7.90;;;10.70;99.90;;;;;;5015805;28;20471;-65
2024/04/04 00:37:57;;;;;;;8.47;7.67;;;10.70;99.90;;;;;;5022098;28;20459;-65
2024/04/04 00:40:24;;;;;;;8.33;7.63;;;10.70;99.90;;;;;;5015722;28;20494;-65
2024/04/04 00:42:51;;;;;;;10.20;8.97;;;10.70;99.90;;;;;;5020171;28;20833;-65
2024/04/04 00:45:18;;;;;;;9.80;8.80;;;10.70;99.90;;;;;;5021980;28;20590;-64
2024/04/04 00:47:48;;;;;;;9.90;9.00;;;10.70;99.90;;;;;;5020000;28;20471;-64
2024/04/04 00:50:16;;;;;;;10.10;9.10;;;10.70;99.90;;;;;;5018748;28;20548;-64
2024/04/04 00:52:44;;;;;;;10.10;9.10;;;10.70;99.90;;;;;;5018886;28;20502;-65
2024/04/04 00:55:10;;;;;;;9.80;8.90;;;10.70;99.90;;;;;;5017125;28;20487;-65
2024/04/04 00:57:38;;;;;;;10.57;9.20;;;10.70;99.90;;;;;;5019179;28;20471;-64
2024/04/04 01:00:06;;;;;;;12.20;10.90;;;10.70;99.90;;;;;;5018253;28;20523;-64
2024/04/04 01:02:34;;;;;;;12.13;10.83;;;10.70;99.90;;;;;;5024030;28;20478;-64
2024/04/04 01:05:00;;;;;;;11.00;9.83;;;10.70;99.90;;;;;;5019931;28;20879;-65
2024/04/04 01:07:28;;;;;;;11.57;10.37;;;10.70;99.90;;;;;;5019270;28;20839;-64
2024/04/04 01:09:54;;;;;;;11.50;10.40;;;10.70;99.90;;;;;;5015437;28;21281;-65
2024/04/04 01:12:21;;;;;;;11.80;10.70;;;10.70;99.90;;;;;;5012728;28;20467;-64
2024/04/04 01:14:47;;;;;;;12.20;10.90;;;10.60;99.90;;;;;;5018116;28;21027;-64
2024/04/04 01:17:14;;;;;;;11.63;10.43;;;10.60;99.90;;;;;;5021306;28;20976;-64
2024/04/04 01:19:40;;;;;;;11.87;10.67;;;10.60;99.90;;;;;;5015935;28;20491;-65
2024/04/04 01:22:07;;;;;;;11.33;10.23;;;10.70;99.90;;;;;;5018140;28;20529;-64
2024/04/04 01:24:35;;;;;;;12.63;10.20;;;10.70;99.90;;;;;;5012460;28;20518;-64
2024/04/04 01:27:02;;;;;;;10.70;9.60;;;10.70;99.90;;;;;;5018670;28;20474;-64
2024/04/04 01:29:28;;;;;;;10.57;9.57;;;10.70;99.90;;;;;;5015810;28;20996;-64
2024/04/04 01:31:55;;;;;;;11.60;9.87;;;10.70;99.90;;;;;;5015165;28;20468;-65
2024/04/04 01:34:21;;;;;;;11.03;10.03;;;10.70;99.90;;;;;;5032811;28;20479;-64
2024/04/04 01:36:48;;;;;;;11.20;10.20;;;10.70;99.90;;;;;;5021030;28;20471;-64
2024/04/04 01:39:14;;;;;;;11.87;10.67;;;10.70;99.90;;;;;;5016935;28;20959;-64
2024/04/04 01:41:45;;;;;;;11.20;10.10;;;10.70;99.90;;;;;;5009547;28;20506;-64
2024/04/04 01:44:12;;;;;;;11.70;10.50;;;10.70;99.90;;;;;;5019748;28;20487;-64
2024/04/04 01:46:39;;;;;;;13.33;10.37;;;10.70;99.90;;;;;;5019086;28;20475;-64
2024/04/04 01:49:05;;;;;;;12.07;10.87;;;10.70;99.90;;;;;;5021822;28;20824;-64
2024/04/04 01:51:32;;;;;;;11.73;10.57;;;10.70;99.90;;;;;;5014604;28;20494;-65
2024/04/04 01:54:00;;;;;;;12.43;10.73;;;10.70;99.90;;;;;;5022369;28;20999;-64
2024/04/04 01:56:27;;;;;;;14.23;11.00;;;10.70;99.90;;;;;;5017186;28;21003;-64
2024/04/04 01:58:54;;;;;;;11.90;10.70;;;10.70;99.90;;;;;;5020338;28;20467;-64
2024/04/04 02:01:21;;;;;;;12.07;10.87;;;10.60;99.90;;;;;;5018657;28;20483;-64
2024/04/04 02:03:47;;;;;;;11.53;10.33;;;10.60;99.90;;;;;;5014485;28;20490;-64
2024/04/04 02:06:14;;;;;;;11.77;10.57;;;10.60;99.90;;;;;;5018274;28;20699;-65
2024/04/04 02:08:40;;;;;;;12.10;10.33;;;10.60;99.90;;;;;;5022558;28;20471;-64
2024/04/04 02:11:10;;;;;;;11.17;9.97;;;10.60;99.90;;;;;;5021933;28;21119;-64
2024/04/04 02:13:37;;;;;;;9.93;8.90;;;10.60;99.90;;;;;;5020073;28;20503;-64
2024/04/04 02:16:05;;;;;;;10.53;8.90;;;10.60;99.90;;;;;;5017495;28;20467;-64
2024/04/04 02:18:32;;;;;;;11.80;9.80;;;10.60;99.90;;;;;;5020748;28;20871;-65
2024/04/04 02:20:59;;;;;;;11.20;9.53;;;10.60;99.90;;;;;;5019484;28;20498;-64
2024/04/04 02:23:25;;;;;;;10.50;9.40;;;10.50;99.90;;;;;;5022129;28;20557;-64
2024/04/04 02:25:52;;;;;;;9.90;9.00;;;10.50;99.90;;;;;;5021649;28;20463;-64
2024/04/04 02:28:18;;;;;;;10.37;9.03;;;10.50;99.90;;;;;;5026707;28;20467;-64
2024/04/04 02:30:46;;;;;;;9.93;8.60;;;10.50;99.90;;;;;;5022994;28;20536;-64
2024/04/04 02:33:13;;;;;;;10.37;8.67;;;10.50;99.90;;;;;;5023393;28;20479;-65
2024/04/04 02:35:40;;;;;;;9.63;8.47;;;10.50;99.90;;;;;;5022249;28;20683;-64
2024/04/04 02:38:06;;;;;;;8.03;7.23;;;10.50;99.90;;;;;;5022168;28;21345;-64
2024/04/04 02:40:34;;;;;;;10.73;8.10;;;10.50;99.90;;;;;;5019440;28;20900;-64
2024/04/04 02:43:00;;;;;;;9.07;7.67;;;10.50;99.90;;;;;;5021157;28;20476;-64
2024/04/04 02:45:27;;;;;;;8.43;7.60;;;10.50;99.90;;;;;;5020211;28;20464;-64
2024/04/04 02:47:53;;;;;;;9.13;7.43;;;10.50;99.90;;;;;;5024324;28;20474;-64
2024/04/04 02:50:21;;;;;;;10.87;6.93;;;10.50;99.90;;;;;;5018723;28;20554;-64
2024/04/04 02:52:47;;;;;;;7.67;6.60;;;10.50;99.90;;;;;;5022880;28;20467;-64
2024/04/04 02:55:14;;;;;;;8.00;6.40;;;10.50;99.90;;;;;;5016489;28;20498;-64
2024/04/04 02:57:41;;;;;;;7.00;5.97;;;10.40;99.90;;;;;;5014959;28;20545;-64
2024/04/04 03:00:09;;;;;;;8.70;6.73;;;10.40;99.90;;;;;;5015461;28;20486;-64
2024/04/04 03:02:35;;;;;;;10.03;6.73;;;10.40;99.90;;;;;;5012946;28;20463;-64
2024/04/04 03:05:02;;;;;;;8.37;7.00;;;10.40;99.90;;;;;;5018241;28;20491;-64
2024/04/04 03:07:29;;;;;;;6.83;6.13;;;10.40;99.90;;;;;;5017201;28;20471;-67
2024/04/04 03:09:56;;;;;;;9.00;6.03;;;10.40;99.90;;;;;;5020254;28;20471;-67
2024/04/04 03:12:22;;;;;;;7.00;6.30;;;10.40;99.90;;;;;;5023822;28;21042;-67
2024/04/04 03:14:51;;;;;;;7.27;6.50;;;10.30;99.90;;;;;;5022108;28;21052;-67
2024/04/04 03:17:17;;;;;;;7.07;6.37;;;10.30;99.90;;;;;;5022672;28;20486;-65
2024/04/04 03:19:44;;;;;;;8.67;5.37;;;10.30;99.90;;;;;;5021337;28;20475;-64
2024/04/04 03:22:10;;;;;;;8.83;6.00;;;10.40;99.90;;;;;;5017561;28;20832;-64
2024/04/04 03:24:38;;;;;;;8.07;6.00;;;10.30;99.90;;;;;;5020203;28;20494;-64
2024/04/04 03:27:05;;;;;;;7.70;5.67;;;10.30;99.90;;;;;;5020870;28;20472;-65
2024/04/04 03:29:32;;;;;;;10.47;6.33;;;10.30;99.90;;;;;;5022168;28;20478;-64
2024/04/04 03:31:58;;;;;;;7.57;6.10;;;10.30;99.90;;;;;;5021073;28;20474;-64
2024/04/04 03:34:26;;;;;;;9.20;6.00;;;10.30;99.90;;;;;;5020669;28;20487;-64
2024/04/04 03:36:52;;;;;;;7.77;5.47;;;10.30;99.90;;;;;;5021038;28;20550;-64
2024/04/04 03:39:19;;;;;;;6.93;6.07;;;10.30;99.90;;;;;;5019309;28;20463;-64
2024/04/04 03:41:48;;;;;;;6.47;5.67;;;10.30;99.90;;;;;;5019158;28;20487;-64
2024/04/04 03:44:15;;;;;;;8.13;5.70;;;10.30;99.90;;;;;;5022664;28;20491;-64
2024/04/04 03:46:41;;;;;;;10.40;6.17;;;10.30;99.90;;;;;;5018742;28;20811;-64
2024/04/04 03:49:08;;;;;;;6.80;5.87;;;10.30;99.90;;;;;;5018995;28;20912;-64
2024/04/04 03:51:34;;;;;;;5.77;5.27;;;10.30;99.90;;;;;;5019272;28;20484;-64
2024/04/04 03:54:01;;;;;;;7.23;5.73;;;10.30;99.90;;;;;;5021111;28;20732;-64
2024/04/04 03:56:28;;;;;;;7.67;5.60;;;10.30;99.90;;;;;;5020017;28;20974;-64
2024/04/04 03:58:56;;;;;;;8.53;5.77;;;10.30;99.90;;;;;;5016192;28;20494;-63
2024/04/04 04:01:23;;;;;;;9.73;5.53;;;10.30;99.90;;;;;;5021237;28;20751;-64
2024/04/04 04:03:50;;;;;;;5.87;5.27;;;10.30;99.90;;;;;;5035483;28;20502;-65
2024/04/04 04:06:16;;;;;;;6.00;5.40;;;10.30;99.90;;;;;;5018569;28;20533;-64
2024/04/04 04:08:43;;;;;;;6.70;5.10;;;10.30;99.90;;;;;;5021721;28;20479;-64
2024/04/04 04:11:10;;;;;;;6.20;5.17;;;10.20;99.90;;;;;;5020251;28;21544;-64
2024/04/04 04:13:36;;;;;;;6.90;5.23;;;10.30;99.90;;;;;;5020840;28;21070;-64
2024/04/04 04:16:04;;;;;;;8.60;6.07;;;10.30;99.90;;;;;;5013123;28;20470;-65
2024/04/04 04:18:31;;;;;;;7.03;5.40;;;10.30;99.90;;;;;;5020006;28;20471;-64
2024/04/04 04:21:17;;;;;;;6.93;5.37;;;10.30;99.90;;;;;;5016599;28;20487;-64
2024/04/04 04:23:47;;;;;;;6.43;4.70;;;10.20;99.90;;;;;;5017474;28;20491;-64
2024/04/04 04:26:13;;;;;;;6.30;5.00;;;10.20;99.90;;;;;;5019318;28;20474;-64
2024/04/04 04:28:41;;;;;;;8.10;5.50;;;10.20;99.90;;;;;;5017312;28;20499;-64
2024/04/04 04:31:22;;;;;;;6.30;5.10;;;10.20;99.90;;;;;;5013790;28;20511;-64
2024/04/04 04:33:49;;;;;;;7.60;5.13;;;10.20;99.90;;;;;;5016319;28;20487;-64
2024/04/04 04:36:15;;;;;;;7.57;5.10;;;10.20;99.90;;;;;;5013027;28;20533;-64
2024/04/04 04:38:42;;;;;;;5.60;5.10;;;10.20;99.90;;;;;;5010216;28;20847;-67
2024/04/04 04:41:08;;;;;;;5.60;5.10;;;10.10;99.90;;;;;;5014044;28;20483;-67
2024/04/04 04:43:35;;;;;;;5.87;5.30;;;10.10;99.90;;;;;;5019780;28;20487;-67
2024/04/04 04:46:02;;;;;;;6.90;5.30;;;10.10;99.90;;;;;;5011367;28;20459;-67
2024/04/04 04:48:30;;;;;;;9.83;5.37;;;10.10;99.90;;;;;;5018223;28;20530;-66
2024/04/04 04:50:56;;;;;;;7.00;5.50;;;10.10;99.90;;;;;;5016203;28;20476;-66
2024/04/04 04:53:23;;;;;;;8.47;5.67;;;10.10;99.90;;;;;;5030714;28;20839;-67
2024/04/04 04:55:50;;;;;;;8.90;5.07;;;10.10;99.90;;;;;;5033590;28;20478;-67
2024/04/04 04:58:19;;;;;;;5.63;4.40;;;10.10;99.90;;;;;;5025779;28;21545;-67
2024/04/04 05:00:45;;;;;;;5.87;4.60;;;10.10;99.90;;;;;;5024115;28;20495;-67
2024/04/04 05:03:12;;;;;;;6.23;4.30;;;10.10;99.90;;;;;;5011423;28;20463;-68
2024/04/04 05:05:40;;;;;;;5.30;4.30;;;10.10;99.90;;;;;;5016251;28;20476;-68
2024/04/04 05:08:07;;;;;;;4.53;4.13;;;10.10;99.90;;;;;;4998584;28;20983;-67
2024/04/04 05:10:33;;;;;;;7.10;4.43;;;10.10;99.90;;;;;;5006613;28;20484;-66
2024/04/04 05:13:00;;;;;;;4.60;4.07;;;10.10;99.90;;;;;;5009197;28;20479;-65
2024/04/04 05:15:26;;;;;;;6.80;3.80;;;10.10;99.90;;;;;;5017241;28;20482;-66
2024/04/04 05:17:53;;;;;;;5.90;3.90;;;10.10;99.90;;;;;;5010592;28;21102;-66
2024/04/04 05:20:19;;;;;;;4.93;4.00;;;10.10;99.90;;;;;;5010696;28;20561;-66
2024/04/04 05:22:48;;;;;;;7.50;4.70;;;10.10;99.90;;;;;;5011789;28;20896;-66
2024/04/04 05:25:14;;;;;;;5.83;4.30;;;10.10;99.90;;;;;;5013511;28;20573;-66
2024/04/04 05:27:41;;;;;;;7.47;4.37;;;10.10;99.90;;;;;;5019338;28;20467;-66
2024/04/04 05:30:10;;;;;;;8.53;4.43;;;10.10;99.90;;;;;;5016495;28;20500;-66
2024/04/04 05:32:38;;;;;;;8.90;4.83;;;10.10;99.90;;;;;;5017010;28;20483;-66
2024/04/04 05:35:06;;;;;;;5.83;4.10;;;10.10;99.90;;;;;;5021297;28;20495;-66
2024/04/04 05:37:33;;;;;;;5.43;4.50;;;10.10;99.90;;;;;;5018144;28;20471;-66
2024/04/04 05:40:01;;;;;;;5.17;4.50;;;10.10;99.90;;;;;;5014898;28;20467;-66
2024/04/04 05:42:28;;;;;;;5.57;3.90;;;10.10;99.90;;;;;;5013298;28;20479;-66
2024/04/04 05:44:55;;;;;;;6.73;4.00;;;10.10;99.90;;;;;;5016046;28;20509;-66
2024/04/04 05:47:22;;;;;;;6.13;3.50;;;10.10;99.90;;;;;;5013452;28;20525;-66
2024/04/04 05:49:48;;;;;;;5.80;3.70;;;10.10;99.90;;;;;;5014980;28;20486;-66
2024/04/04 05:52:15;;;;;;;8.20;3.37;;;10.10;99.90;;;;;;5003288;28;20467;-66
2024/04/04 05:54:41;;;;;;;5.60;3.47;;;10.10;99.90;;;;;;5017741;28;20548;-66
2024/04/04 05:57:10;;;;;;;7.90;3.50;;;10.20;99.90;;;;;;5019968;28;20490;-66
2024/04/04 05:59:36;;;;;;;6.30;3.47;;;10.20;99.90;;;;;;5024667;28;20468;-63
2024/04/04 06:02:03;;;;;;;6.37;3.47;;;10.20;99.90;;;;;;5022876;28;20487;-66
2024/04/04 06:04:29;;;;;;;5.07;3.50;;;10.10;99.90;;;;;;5020882;28;20616;-66
2024/04/04 06:06:56;;;;;;;4.97;2.93;;;10.10;99.90;;;;;;5025151;28;20482;-66
2024/04/04 06:09:23;;;;;;;5.63;3.70;;;10.10;99.90;;;;;;5020669;28;20472;-65
2024/04/04 06:11:50;;;;;;;4.73;3.00;;;10.20;99.90;;;;;;5023281;28;20463;-66
2024/04/04 06:14:17;;;;;;;5.30;3.50;;;10.20;99.90;;;;;;5020493;28;20495;-66
2024/04/04 06:16:44;;;;;;;3.40;2.90;;;10.20;99.90;;;;;;5018612;28;20757;-66
2024/04/04 06:19:10;;;;;;;3.73;2.70;;;10.20;99.90;;;;;;5027065;28;20525;-66
2024/04/04 06:21:37;;;;;;;4.20;2.60;;;10.20;99.90;;;;;;5022253;28;20917;-66
2024/04/04 06:24:04;;;;;;;3.23;2.93;;;10.10;99.90;;;;;;5024488;28;20785;-66
2024/04/04 06:26:31;;;;;;;5.03;2.53;;;10.10;99.90;;;;;;5025771;28;20545;-66
2024/04/04 06:28:57;;;;;;;3.93;2.60;;;10.10;99.90;;;;;;5022950;28;20466;-66
2024/04/04 06:31:26;;;;;;;4.50;3.33;;;10.10;99.90;;;;;;5023100;28;21023;-66
2024/04/04 06:33:52;;;;;;;2.50;2.07;;;10.10;99.90;;;;;;5023567;28;20487;-66
2024/04/04 06:36:19;;;;;;;5.93;2.53;;;10.10;99.90;;;;;;5023276;28;20497;-65
2024/04/04 06:38:45;;;;;;;3.63;2.40;;;10.20;99.90;;;;;;5019077;28;20483;-65
2024/04/04 06:41:13;;;;;;;3.83;2.37;;;10.20;99.90;;;;;;5032440;28;20486;-65
2024/04/04 06:43:39;;;;;;;4.43;2.10;;;10.20;99.90;;;;;;5042303;28;20494;-65
2024/04/04 06:46:06;;;;;;;3.33;1.97;;;10.30;99.90;;;;;;5042212;28;20470;-65
2024/04/04 06:48:40;;;;;;;3.23;2.30;;;10.30;99.90;;;;;;5041092;28;20470;-65
2024/04/04 06:51:07;;;;;;;4.37;2.30;;;10.40;99.90;;;;;;5042633;28;20828;-65
2024/04/04 06:53:33;;;;;;;2.70;2.20;;;10.40;99.90;;;;;;5043675;28;20486;-65
2024/04/04 06:56:01;;;;;;;5.10;2.57;;;10.50;99.90;;;;;;5036684;28;20474;-65
2024/04/04 06:58:27;;;;;;;6.90;2.67;;;10.50;99.90;;;;;;5045069;28;20896;-65
2024/04/04 07:00:57;;;;;;;2.67;2.03;;;10.50;99.90;;;;;;5025761;28;20489;-65
2024/04/04 07:03:23;;;;;;;3.93;2.03;;;10.50;99.90;;;;;;5023329;28;20491;-65
2024/04/04 07:05:52;;;;;;;5.27;2.03;;;10.50;99.90;;;;;;5023982;28;20494;-65
2024/04/04 07:08:18;;;;;;;5.47;2.47;;;10.50;99.90;;;;;;5024577;28;20527;-65
2024/04/04 07:10:45;;;;;;;2.87;1.80;;;10.50;99.90;;;;;;5023787;28;20519;-65
2024/04/04 07:13:11;;;;;;;5.30;2.27;;;10.50;99.90;;;;;;5021335;28;20479;-65
2024/04/04 07:15:38;;;;;;;3.70;1.80;;;10.40;99.90;;;;;;5022940;28;20471;-65
2024/04/04 07:18:09;;;;;;;3.30;2.30;;;10.50;99.90;;;;;;5019895;28;20476;-65
2024/04/04 07:20:37;;;;;;;3.53;2.30;;;10.50;99.90;;;;;;5019167;28;20938;-65
2024/04/04 07:23:05;;;;;;;2.50;1.77;;;10.50;99.90;;;;;;5022710;28;21059;-65
2024/04/04 07:25:33;;;;;;;3.03;1.83;;;10.50;99.90;;;;;;5022908;28;20869;-65
2024/04/04 07:28:00;;;;;;;1.80;1.70;;;10.50;99.90;;;;;;5025324;28;20464;-65
2024/04/04 07:30:29;;;;;;;4.00;1.90;;;10.50;99.90;;;;;;5019629;28;20483;-65
2024/04/04 07:32:55;;;;;;;4.93;1.87;;;10.70;99.90;;;;;;5024782;28;20479;-65
2024/04/04 07:35:22;;;;;;;6.17;1.70;;;10.80;99.90;;;;;;5019633;28;20491;-64
2024/04/04 07:37:48;;;;;;;2.50;2.30;;;10.90;99.90;;;;;;5020960;28;20468;-64
2024/04/04 07:40:17;;;;;;;3.93;2.30;;;11.00;99.90;;;;;;5022342;28;20491;-65
2024/04/04 07:42:46;;;;;;;4.77;2.20;;;11.00;99.90;;;;;;5023447;28;20486;-65
2024/04/04 07:45:13;;;;;;;4.83;2.53;;;11.10;99.90;;;;;;5020499;28;20856;-65
2024/04/04 07:47:39;;;;;;;4.47;2.27;;;11.10;99.90;;;;;;5024742;28;20530;-64
2024/04/04 07:50:07;;;;;;;4.13;2.27;;;11.20;99.90;;;;;;5023842;28;20495;-65
2024/04/04 07:52:33;;;;;;;2.67;1.73;;;11.20;99.90;;;;;;5021586;28;20460;-65
2024/04/04 07:55:01;;;;;;;4.97;1.87;;;11.20;99.90;;;;;;5021692;28;20491;-65
2024/04/04 07:57:28;;;;;;;3.93;2.07;;;11.30;99.90;;;;;;5023709;28;20479;-65
2024/04/04 07:59:55;;;;;;;3.53;2.50;;;11.30;99.90;;;;;;5021775;28;20541;-65
2024/04/04 08:02:23;;;;;;;4.43;2.17;;;11.30;99.90;;;;;;5017770;28;20516;-65
2024/04/04 08:04:50;;;;;;;2.60;1.80;;;11.30;99.90;;;;;;5013621;28;20953;-65
2024/04/04 08:07:16;;;;;;;3.37;1.90;;;11.30;99.90;;;;;;5021328;28;20475;-65
2024/04/04 08:09:44;;;;;;;4.90;1.93;;;11.30;99.90;;;;;;5022721;28;20470;-65
2024/04/04 08:12:10;;;;;;;1.93;1.73;;;11.30;99.90;;;;;;5041738;28;20478;-65
2024/04/04 08:14:38;;;;;;;2.53;1.60;;;11.20;99.90;;;;;;5040641;28;20834;-64
2024/04/04 08:17:04;;;;;;;3.83;1.77;;;11.20;99.90;;;;;;5043439;28;20475;-65
2024/04/04 08:19:32;;;;;;;3.70;1.60;;;11.20;99.90;;;;;;5032855;28;20497;-65
2024/04/04 08:21:58;;;;;;;3.43;1.53;;;11.10;99.90;;;;;;5021554;28;20494;-64
2024/04/04 08:24:25;;;;;;;4.63;1.60;;;11.10;99.90;;;;;;5021493;28;20487;-65
2024/04/04 08:26:51;;;;;;;3.60;2.17;;;11.10;99.90;;;;;;5023672;28;20522;-64
2024/04/04 08:29:19;;;;;;;2.43;1.80;;;11.10;99.90;;;;;;5019375;28;20852;-64
2024/04/04 08:31:46;;;;;;;2.57;2.03;;;11.10;99.90;;;;;;5020610;28;20479;-66
2024/04/04 08:34:13;;;;;;;3.00;1.80;;;11.10;99.90;;;;;;5020099;28;20487;-65
2024/04/04 08:36:39;;;;;;;3.37;1.90;;;11.10;99.90;;;;;;5020848;28;20877;-65
2024/04/04 08:39:08;;;;;;;3.00;1.60;;;11.10;99.90;;;;;;5023002;28;20862;-66
2024/04/04 08:41:34;;;;;;;2.70;1.70;;;11.10;99.90;;;;;;5017713;28;20863;-66
2024/04/04 08:44:03;;;;;;;3.67;1.80;;;11.10;99.90;;;;;;5020209;28;20545;-65
2024/04/04 08:46:29;;;;;;;4.80;1.83;;;11.10;99.90;;;;;;5019308;28;21130;-66
2024/04/04 08:48:59;;;;;;;3.47;1.63;;;11.20;99.90;;;;;;5022817;28;21251;-66
2024/04/04 08:51:25;;;;;;;3.00;1.70;;;11.10;99.90;;;;;;5019269;28;21019;-66
2024/04/04 08:53:52;;;;;;;3.10;2.00;;;11.10;99.90;;;;;;5019768;28;20491;-65
2024/04/04 08:56:18;;;;;;;4.13;2.00;;;11.10;99.90;;;;;;5024175;28;20525;-65
2024/04/04 08:58:46;;;;;;;5.60;2.10;;;11.00;99.90;;;;;;5019142;28;21019;-65
2024/04/04 09:01:12;;;;;;;3.73;2.30;;;11.10;99.90;;;;;;5017618;28;20861;-66
2024/04/04 09:03:43;;;;;;;2.20;1.77;;;11.00;99.90;;;;;;5020028;28;20905;-65
2024/04/04 09:06:14;;;;;;;3.90;2.57;;;11.00;99.90;;;;;;5018820;28;20471;-65
2024/04/04 09:08:41;;;;;;;3.57;2.10;;;11.00;99.90;;;;;;5022516;28;20475;-65
2024/04/04 09:11:07;;;;;;;4.00;2.00;;;11.00;99.90;;;;;;5016664;28;20549;-65
2024/04/04 09:13:35;;;;;;;6.37;1.97;;;11.00;99.90;;;;;;5014662;28;20495;-65
2024/04/04 09:16:02;;;;;;;4.43;2.00;;;11.00;99.90;;;;;;5023557;28;20971;-66
2024/04/04 09:18:30;;;;;;;2.67;1.97;;;10.90;99.90;;;;;;5020384;28;20472;-65
2024/04/04 09:20:59;;;;;;;6.07;1.93;;;10.90;99.90;;;;;;5023995;28;20462;-65
2024/04/04 09:23:30;;;;;;;2.70;1.80;;;10.90;99.90;;;;;;5020668;28;21349;-65
2024/04/04 09:25:56;;;;;;;5.67;1.70;;;10.90;99.90;;;;;;5021662;28;20463;-65
2024/04/04 09:28:23;;;;;;;3.33;1.80;;;10.90;99.90;;;;;;5017234;28;20855;-65
2024/04/04 09:30:52;;;;;;;4.20;2.40;;;10.80;99.90;;;;;;5017503;28;20475;-65
2024/04/04 09:33:21;;;;;;;5.63;2.23;;;10.90;99.90;;;;;;5025458;28;20514;-65
2024/04/04 09:35:49;;;;;;;6.57;2.23;;;10.90;99.90;;;;;;5020586;28;20917;-65
2024/04/04 09:38:17;;;;;;;5.33;2.47;;;10.80;99.90;;;;;;5021773;28;20471;-65
2024/04/04 09:40:47;;;;;;;4.20;1.80;;;10.90;99.90;;;;;;5023483;28;20479;-65
2024/04/04 09:43:14;;;;;;;3.27;2.03;;;10.80;99.90;;;;;;5024158;28;21007;-65
2024/04/04 09:45:42;;;;;;;2.90;2.07;;;10.80;99.90;;;;;;5019438;28;20901;-65
2024/04/04 09:48:10;;;;;;;4.57;2.10;;;10.80;99.90;;;;;;5041095;28;20544;-65
2024/04/04 09:50:38;;;;;;;4.70;2.53;;;10.70;99.90;;;;;;5034565;28;20555;-65
2024/04/04 09:53:04;;;;;;;6.03;2.40;;;10.70;99.90;;;;;;5046237;28;20978;-65
2024/04/04 09:55:32;;;;;;;2.90;1.97;;;10.70;99.90;;;;;;5062521;28;20479;-65
2024/04/04 09:57:59;;;;;;;3.83;2.37;;;10.70;99.90;;;;;;5045534;28;20482;-65
2024/04/04 10:00:28;;;;;;;4.23;2.30;;;10.70;99.90;;;;;;5034423;28;20525;-65
2024/04/04 10:02:56;;;;;;;4.27;2.30;;;10.70;99.90;;;;;;5018848;28;20506;-65
2024/04/04 10:05:33;;;;;;;2.97;2.63;;;10.70;99.90;;;;;;5023355;28;20495;-65
2024/04/04 10:08:08;;;;;;;3.80;2.60;;;10.70;99.90;;;;;;5025835;28;20477;-65
2024/04/04 10:10:35;;;;;;;4.40;2.70;;;10.70;99.90;;;;;;5034426;28;20478;-65
2024/04/04 10:13:06;;;;;;;2.47;2.20;;;10.70;99.90;;;;;;5045071;28;20966;-65
2024/04/04 10:15:43;;;;;;;2.67;2.47;;;10.60;99.90;;;;;;5044049;28;20458;-65
2024/04/04 10:18:10;;;;;;;3.27;2.33;;;10.60;99.90;;;;;;5046396;28;20955;-65
2024/04/04 10:20:39;;;;;;;4.20;2.67;;;10.60;99.90;;;;;;5043494;28;20493;-65
2024/04/04 10:23:05;;;;;;;3.50;2.57;;;10.60;99.90;;;;;;5045298;28;20999;-65
2024/04/04 10:25:33;;;;;;;4.30;2.87;;;10.60;99.90;;;;;;5045499;28;20470;-65
2024/04/04 10:28:03;;;;;;;3.20;2.90;;;10.60;99.90;;;;;;5047290;28;20859;-65
2024/04/04 10:30:36;;;;;;;5.53;3.20;;;10.60;99.90;;;;;;5033635;28;20490;-65
2024/04/04 10:33:07;;;;;;;4.40;2.90;;;10.50;99.90;;;;;;5023262;28;20479;-65
2024/04/04 10:35:34;;;;;;;4.07;2.50;;;10.50;99.90;;;;;;5024284;28;20594;-65
2024/04/04 10:38:07;;;;;;;4.80;3.00;;;10.50;99.90;;;;;;5024320;28;21039;-65
2024/04/04 10:40:35;;;;;;;4.93;3.30;;;10.60;99.90;;;;;;5022411;28;20597;-65
2024/04/04 10:43:03;;;;;;;3.57;2.77;;;10.60;99.90;;;;;;5018485;28;20924;-66
2024/04/04 10:45:30;;;;;;;4.00;2.97;;;10.60;99.90;;;;;;5024431;28;20464;-65
2024/04/04 10:47:58;;;;;;;4.40;3.07;;;10.60;99.90;;;;;;5026565;28;20533;-65
2024/04/04 10:50:27;;;;;;;3.53;2.67;;;10.60;99.90;;;;;;5024856;28;20491;-65
2024/04/04 10:52:53;;;;;;;4.43;2.77;;;10.60;99.90;;;;;;5025153;28;20493;-65
2024/04/04 10:55:21;;;;;;;3.40;2.90;;;10.60;99.90;;;;;;5024375;28;20499;-65
2024/04/04 10:57:51;;;;;;;3.13;2.83;;;10.60;99.90;;;;;;5026340;28;20475;-65
2024/04/04 11:00:20;;;;;;;4.10;3.10;;;10.60;99.90;;;;;;5024645;28;20522;-65
2024/04/04 11:02:47;;;;;;;4.27;3.47;;;10.70;99.90;;;;;;5022796;28;20490;-65
2024/04/04 11:05:17;;;;;;;3.97;2.80;;;10.70;99.90;;;;;;5023334;28;20496;-65
2024/04/04 11:07:45;;;;;;;3.70;3.13;;;10.70;99.90;;;;;;5019758;28;20476;-65
2024/04/04 11:10:13;;;;;;;3.63;3.33;;;10.70;99.90;;;;;;5024918;28;20565;-65
2024/04/04 11:12:39;;;;;;;3.67;3.20;;;10.70;99.90;;;;;;5022581;28;20464;-65
2024/04/04 11:15:07;;;;;;;3.50;3.17;;;10.80;99.90;;;;;;5024489;28;20487;-65
2024/04/04 11:17:34;;;;;;;6.00;3.30;;;10.80;99.90;;;;;;5023135;28;20463;-65
2024/04/04 11:20:06;;;;;;;3.53;3.23;;;10.80;99.90;;;;;;5020475;28;20484;-65
2024/04/04 11:22:35;;;;;;;3.87;3.03;;;10.80;99.90;;;;;;5026045;28;20491;-65
2024/04/04 11:25:02;;;;;;;5.10;2.70;;;10.90;99.90;;;;;;5018546;28;20878;-65
2024/04/04 11:27:28;;;;;;;3.83;3.30;;;10.90;99.90;;;;;;5017307;28;20467;-65
2024/04/04 11:29:55;;;;;;;3.17;2.97;;;10.90;99.90;;;;;;5015894;28;21029;-65
2024/04/04 11:32:21;;;;;;;3.83;3.53;;;10.90;99.90;;;;;;5038261;28;20459;-65
2024/04/04 11:34:48;;;;;;;3.83;2.73;;;10.90;99.90;;;;;;5042435;28;20490;-65
2024/04/04 11:37:14;;;;;;;4.97;3.10;;;10.90;99.90;;;;;;5048438;28;20536;-65
2024/04/04 11:39:43;;;;;;;4.00;3.00;;;10.90;99.90;;;;;;5027847;28;21058;-65
2024/04/04 11:42:09;;;;;;;4.93;2.70;;;10.90;99.90;;;;;;5031553;28;20499;-65
2024/04/04 11:44:36;;;;;;;2.70;2.40;;;11.00;99.90;;;;;;5034350;28;20486;-66
2024/04/04 11:47:02;;;;;;;4.03;2.53;;;11.00;99.90;;;;;;5042237;28;20525;-66
2024/04/04 11:49:30;;;;;;;4.47;2.80;;;11.00;99.90;;;;;;5033445;28;20483;-65
2024/04/04 11:51:56;;;;;;;4.67;2.50;;;11.00;99.90;;;;;;5040449;28;20960;-66
2024/04/04 11:54:23;;;;;;;2.20;2.00;;;11.10;99.90;;;;;;5038450;28;20789;-66
2024/04/04 11:56:50;;;;;;;2.87;2.47;;;11.10;99.90;;;;;;5032681;28;20479;-66
2024/04/04 11:59:17;;;;;;;2.97;2.23;;;11.10;99.90;;;;;;5040458;28;20471;-66
2024/04/04 12:01:44;;;;;;;3.00;2.77;;;11.10;99.90;;;;;;5036869;28;20495;-66
2024/04/04 12:04:11;;;;;;;2.60;2.40;;;11.10;99.90;;;;;;5040111;28;20494;-66
2024/04/04 12:06:37;;;;;;;2.50;2.30;;;11.20;99.90;;;;;;5034909;28;21037;-66
2024/04/04 12:09:07;;;;;;;4.50;2.80;;;11.20;99.90;;;;;;5036867;28;20988;-66
2024/04/04 12:11:35;;;;;;;3.37;3.17;;;11.20;99.90;;;;;;5039657;28;20489;-66
2024/04/04 12:14:05;;;;;;;3.10;2.80;;;11.20;99.90;;;;;;5037248;28;20501;-66
2024/04/04 12:16:32;;;;;;;3.30;3.00;;;11.20;99.90;;;;;;5033420;28;20463;-66
2024/04/04 12:21:40;;;;;;;3.00;2.80;;;11.30;99.90;;;;;;5023008;28;20483;-66
2024/04/04 12:24:07;;;;;;;3.20;2.90;;;11.40;99.90;;;;;;5038823;28;20494;-67
2024/04/04 12:26:33;;;;;;;3.50;3.20;;;11.40;99.90;;;;;;5037639;28;20525;-66
2024/04/04 12:29:00;;;;;;;3.60;3.30;;;11.50;99.90;;;;;;5036469;28;20466;-66
2024/04/04 12:31:28;;;;;;;3.50;3.20;;;11.50;99.90;;;;;;5036260;28;21144;-67
2024/04/04 12:33:55;;;;;;;3.60;3.30;;;11.50;99.90;;;;;;5036660;28;20497;-66
2024/04/04 12:36:21;;;;;;;3.90;3.60;;;11.60;99.90;;;;;;5039260;28;20475;-66
2024/04/04 12:38:48;;;;;;;3.33;3.03;;;11.70;99.90;;;;;;5036232;28;20846;-67
2024/04/04 12:41:15;;;;;;;4.50;3.33;;;11.80;99.90;;;;;;5035716;28;20494;-66
2024/04/04 12:43:42;;;;;;;4.77;3.80;;;11.90;99.90;;;;;;5040997;28;20552;-66
2024/04/04 12:46:08;;;;;;;4.67;4.20;;;11.90;99.90;;;;;;5035903;28;20467;-66
2024/04/04 12:48:36;;;;;;;4.33;3.60;;;12.00;99.90;;;;;;5041235;28;20470;-66